Terminal Aerodrome Forecast
Issued by NWS Hastings, NE

Home | Current Version | Previous Version | Text Only | Print | Product List | Glossary On
Versions: 1 2 3 4 5 6 7 8 9 10 11 12 13 14 15 16 17 18 19 20 21 22 23 24
000
FTUS45 KGID 051725
TAFEAR
TAF
KEAR 051725Z 0518/0618 12011KT P6SM BKN015
     FM052000 14015G21KT P6SM SCT025 BKN040
     FM060200 15012KT P6SM BKN025
     FM060400 15011KT 5SM -SHRA OVC009
     FM060600 15011KT 2SM -SHRA OVC004
      AMD LTD TO CLD VIS AND WIND=

USA.gov is the U.S. government's official web portal to all federal, state and local government web resources and services.